Time;durP1;ratioP1;P1;durP2;ratioP2;P2;SDS_P1;SDS_P2;PMS_P1;PMS_P2;Temp;Humidity;BMP_temperature;BMP_pressure;BME280_temperature;BME280_humidity;BME280_pressure;Samples;Min_cycle;Max_cycle;Signal;HPM_P1;HPM_P2
2020/12/05 00:01:23;;;;;;;5.30;3.20;;;;;;;26.23;28.11;94054.22;5005946;28;20033;-32
2020/12/05 00:03:48;;;;;;;4.90;2.90;;;;;;;26.25;27.93;94063.72;5010577;28;20048;-34
2020/12/05 00:06:19;;;;;;;4.93;2.90;;;;;;;26.23;28.08;94059.47;5012751;28;20037;-31
2020/12/05 00:08:45;;;;;;;6.30;3.07;;;;;;;26.26;28.36;94089.03;5011495;28;20040;-33
2020/12/05 00:11:10;;;;;;;4.90;2.90;;;;;;;26.24;28.19;94091.81;5015981;28;20322;-32
2020/12/05 00:13:35;;;;;;;4.38;3.03;;;;;;;26.23;28.08;94095.38;5016776;28;20060;-33
2020/12/05 00:16:01;;;;;;;5.50;2.83;;;;;;;26.23;28.13;94098.84;5011239;28;20041;-30
2020/12/05 00:18:27;;;;;;;5.25;3.00;;;;;;;26.23;28.19;94084.88;5013192;28;20057;-33
2020/12/05 00:20:52;;;;;;;5.63;2.78;;;;;;;26.24;28.26;94039.31;5012819;28;20049;-33
2020/12/05 00:23:18;;;;;;;10.65;2.97;;;;;;;26.22;28.38;94023.69;5012386;28;20064;-33
2020/12/05 00:25:43;;;;;;;4.80;3.08;;;;;;;26.19;28.33;94049.41;5012592;28;20697;-30
2020/12/05 00:28:09;;;;;;;3.70;2.63;;;;;;;26.21;28.22;94066.66;5016101;28;20041;-31
2020/12/05 00:30:34;;;;;;;4.65;2.97;;;;;;;26.23;28.29;94058.63;5011147;28;20045;-31
2020/12/05 00:33:00;;;;;;;4.20;2.75;;;;;;;26.22;28.01;94035.97;4994155;28;20136;-34
2020/12/05 00:35:26;;;;;;;4.55;2.78;;;;;;;26.19;28.12;94037.13;5015904;28;20041;-32
2020/12/05 00:37:52;;;;;;;3.78;2.50;;;;;;;26.21;28.13;94055.34;5019965;28;20065;-32
2020/12/05 00:40:18;;;;;;;3.80;2.50;;;;;;;26.18;28.33;94066.97;5010197;28;20037;-32
2020/12/05 00:42:43;;;;;;;3.40;2.38;;;;;;;26.20;28.30;94079.94;5016836;28;20431;-32
2020/12/05 00:45:09;;;;;;;4.57;2.67;;;;;;;26.20;28.08;94051.06;5017417;28;20044;-32
2020/12/05 00:47:34;;;;;;;3.47;2.45;;;;;;;26.19;28.03;94028.41;5016581;28;20203;-32
2020/12/05 00:49:59;;;;;;;3.83;2.58;;;;;;;26.20;28.12;94057.13;5019022;28;20504;-31
2020/12/05 00:52:25;;;;;;;4.32;2.70;;;;;;;26.19;28.21;94046.78;5016794;28;20041;-33
2020/12/05 00:54:50;;;;;;;3.67;2.55;;;;;;;26.18;28.06;94051.22;5019996;28;20037;-29
2020/12/05 00:57:16;;;;;;;3.70;2.80;;;;;;;26.20;27.94;94048.44;5024348;28;20045;-32
2020/12/05 00:59:42;;;;;;;5.35;2.55;;;;;;;26.20;28.14;94048.44;5024284;28;20048;-32
2020/12/05 01:02:07;;;;;;;4.25;2.40;;;;;;;26.19;28.02;94057.28;5018190;28;20042;-31
2020/12/05 01:04:33;;;;;;;5.53;2.50;;;;;;;26.19;28.06;94063.38;5023364;28;20529;-34
2020/12/05 01:06:58;;;;;;;3.97;2.65;;;;;;;26.17;28.31;94075.81;5015480;28;20108;-32
2020/12/05 01:09:24;;;;;;;3.90;2.72;;;;;;;26.19;28.28;94094.88;5017856;28;20049;-32
2020/12/05 01:11:50;;;;;;;7.63;3.40;;;;;;;26.18;27.64;94098.47;5008831;28;20099;-34
2020/12/05 01:14:16;;;;;;;9.25;3.72;;;;;;;26.14;26.85;94101.53;5015951;28;20048;-29
2020/12/05 01:16:43;;;;;;;4.00;2.92;;;;;;;26.12;27.82;94106.13;5011882;28;20042;-33
2020/12/05 01:19:09;;;;;;;5.10;2.90;;;;;;;26.07;28.33;94124.91;5015778;28;20021;-34
2020/12/05 01:21:35;;;;;;;3.05;2.30;;;;;;;26.07;28.42;94149.38;5017942;28;20090;-31
2020/12/05 01:24:01;;;;;;;9.52;2.40;;;;;;;26.08;28.40;94158.88;5012198;28;20520;-32
2020/12/05 01:26:26;;;;;;;4.15;2.50;;;;;;;26.08;28.33;94174.63;5016313;28;20583;-34
2020/12/05 01:28:52;;;;;;;4.75;2.38;;;;;;;26.10;28.25;94172.69;5009776;28;20056;-33
2020/12/05 01:31:18;;;;;;;4.05;2.30;;;;;;;26.11;28.30;94157.78;5016097;28;20061;-33
2020/12/05 01:33:43;;;;;;;2.83;2.10;;;;;;;26.13;28.24;94155.00;5015274;28;20119;-30
2020/12/05 01:36:09;;;;;;;6.25;2.78;;;;;;;26.12;28.52;94158.59;5031706;28;20037;-33
2020/12/05 01:38:35;;;;;;;7.68;2.47;;;;;;;26.12;28.39;94155.97;5014635;28;20147;-31
2020/12/05 01:41:01;;;;;;;3.70;2.30;;;;;;;26.10;28.36;94156.94;5017060;28;20069;-32
2020/12/05 01:43:28;;;;;;;3.92;2.35;;;;;;;26.12;28.34;94169.09;5015214;28;20029;-31
2020/12/05 01:45:53;;;;;;;5.38;2.20;;;;;;;26.10;28.29;94164.00;5008739;28;20574;-33
2020/12/05 01:48:19;;;;;;;3.22;2.40;;;;;;;26.13;28.37;94162.88;5020054;28;20043;-30
2020/12/05 01:50:45;;;;;;;4.35;2.60;;;;;;;26.12;28.24;94162.03;5001086;28;20037;-33
2020/12/05 01:53:11;;;;;;;3.22;2.08;;;;;;;26.13;28.30;94168.13;5013345;28;20068;-32
2020/12/05 01:55:37;;;;;;;4.80;2.20;;;;;;;26.12;28.17;94176.97;5015992;28;20167;-32
2020/12/05 01:58:03;;;;;;;3.55;2.20;;;;;;;26.14;28.26;94175.00;5013174;28;20076;-32
2020/12/05 02:00:28;;;;;;;4.18;2.28;;;;;;;26.12;28.40;94167.28;5010124;28;20893;-31
2020/12/05 02:02:54;;;;;;;6.68;2.50;;;;;;;26.10;28.03;94162.19;5014234;28;20052;-32
2020/12/05 02:05:33;;;;;;;2.72;1.95;;;;;;;26.10;28.19;94164.00;5000742;28;20429;-31
2020/12/05 02:08:06;;;;;;;3.35;2.30;;;;;;;26.12;28.41;94182.22;5016373;28;20029;-34
2020/12/05 02:10:36;;;;;;;5.18;2.30;;;;;;;26.10;28.19;94196.28;5000494;28;20040;-32
2020/12/05 02:13:12;;;;;;;4.03;2.25;;;;;;;26.09;28.28;94220.09;5037150;28;20288;-33
2020/12/05 02:15:38;;;;;;;2.55;1.92;;;;;;;26.06;28.21;94231.72;5018095;28;20429;-32
2020/12/05 02:18:07;;;;;;;4.03;2.38;;;;;;;26.09;28.20;94236.66;5003364;28;20045;-34
2020/12/05 02:20:34;;;;;;;3.83;2.00;;;;;;;26.08;28.33;94253.38;5019770;28;20045;-31
2020/12/05 02:23:06;;;;;;;2.55;1.95;;;;;;;26.06;28.48;94257.13;5020539;28;20037;-33
2020/12/05 02:25:32;;;;;;;3.00;2.00;;;;;;;26.00;28.34;94248.00;5006344;28;20326;-32
2020/12/05 02:28:01;;;;;;;3.53;1.95;;;;;;;26.07;28.22;94259.59;5019893;28;20060;-32
2020/12/05 02:30:32;;;;;;;3.47;2.00;;;;;;;26.08;28.22;94260.41;5004269;28;20043;-32
2020/12/05 02:32:58;;;;;;;4.57;2.20;;;;;;;26.07;28.15;94264.84;5022454;28;20120;-33
2020/12/05 02:35:24;;;;;;;3.13;2.08;;;;;;;26.07;28.45;94269.25;4999013;28;20105;-34
2020/12/05 02:37:49;;;;;;;3.58;2.10;;;;;;;26.08;28.18;94258.63;5017836;28;20042;-32
2020/12/05 02:40:15;;;;;;;2.42;1.73;;;;;;;26.08;28.21;94273.53;5019727;28;20047;-29
2020/12/05 02:42:41;;;;;;;2.88;1.95;;;;;;;26.06;28.08;94294.69;5020394;28;20029;-33
2020/12/05 02:45:09;;;;;;;3.30;1.90;;;;;;;26.05;28.35;94298.25;5001608;28;20048;-34
2020/12/05 02:47:36;;;;;;;3.03;1.98;;;;;;;26.06;28.33;94306.97;5024160;28;20042;-32
2020/12/05 02:50:01;;;;;;;2.47;1.95;;;;;;;26.06;28.22;94320.94;5035219;28;20160;-32
2020/12/05 02:52:27;;;;;;;3.97;1.95;;;;;;;26.05;28.27;94345.50;5030908;28;20033;-32
2020/12/05 02:54:53;;;;;;;2.80;1.88;;;;;;;26.05;28.26;94374.38;5033788;28;20049;-33
2020/12/05 02:57:19;;;;;;;6.85;1.85;;;;;;;26.05;28.29;94377.00;5020343;28;20040;-33
2020/12/05 02:59:45;;;;;;;2.05;1.77;;;;;;;26.05;28.26;94382.25;5012697;28;20037;-33
2020/12/05 03:02:10;;;;;;;2.40;1.85;;;;;;;26.05;28.25;94371.75;5018166;28;20812;-30
2020/12/05 03:04:36;;;;;;;3.55;1.90;;;;;;;26.04;28.39;94375.34;5016014;28;20168;-33
2020/12/05 03:07:05;;;;;;;2.30;1.80;;;;;;;26.04;28.29;94385.84;5015122;28;20382;-34
2020/12/05 03:09:31;;;;;;;2.50;1.83;;;;;;;26.04;28.25;94400.75;5012134;28;20029;-31
2020/12/05 03:11:57;;;;;;;2.22;1.63;;;;;;;26.00;28.23;94399.41;5014441;28;20060;-33
2020/12/05 03:14:23;;;;;;;2.05;1.85;;;;;;;26.03;28.25;94381.56;5011547;28;20509;-32
2020/12/05 03:16:49;;;;;;;1.83;1.67;;;;;;;26.04;28.35;94375.34;5016890;28;20045;-33
2020/12/05 03:19:16;;;;;;;2.75;1.80;;;;;;;26.04;28.29;94385.84;5028182;28;20300;-34
2020/12/05 03:21:42;;;;;;;1.80;1.45;;;;;;;26.01;28.16;94367.75;5016632;28;20124;-29
2020/12/05 03:24:07;;;;;;;1.63;1.48;;;;;;;26.03;28.54;94357.13;5014183;28;20041;-33
2020/12/05 03:26:32;;;;;;;2.10;1.63;;;;;;;26.02;28.28;94356.31;5011226;28;20328;-33
2020/12/05 03:28:58;;;;;;;3.08;1.67;;;;;;;26.02;28.22;94368.59;5014955;28;20123;-32
2020/12/05 03:34:16;;;;;;;1.88;1.45;;;;;;;26.02;28.49;94392.22;5011043;28;20406;-32
2020/12/05 03:36:42;;;;;;;2.05;1.65;;;;;;;26.01;28.29;94391.38;5023769;28;20482;-33
2020/12/05 03:39:08;;;;;;;3.08;1.77;;;;;;;26.01;28.19;94407.13;5018330;28;20141;-33
2020/12/05 03:41:34;;;;;;;1.98;1.65;;;;;;;26.00;28.36;94415.97;5014063;28;20105;-33
2020/12/05 03:44:00;;;;;;;1.95;1.50;;;;;;;25.99;28.08;94414.31;5010761;28;20088;-34
2020/12/05 03:46:25;;;;;;;1.83;1.40;;;;;;;26.01;28.31;94420.25;5010459;28;20465;-33
2020/12/05 03:48:51;;;;;;;2.63;1.80;;;;;;;26.00;28.26;94410.72;5013552;28;20099;-33
2020/12/05 03:51:17;;;;;;;2.45;1.80;;;;;;;26.00;28.18;94415.16;5011106;28;20056;-32
2020/12/05 03:53:42;;;;;;;1.70;1.48;;;;;;;26.00;28.38;94407.28;5027249;22;20139;-32
2020/12/05 03:56:08;;;;;;;1.73;1.40;;;;;;;25.98;28.27;94399.53;5005060;28;20044;-31
2020/12/05 03:58:34;;;;;;;2.10;1.60;;;;;;;26.00;28.25;94409.91;5007805;28;20050;-32
2020/12/05 04:00:59;;;;;;;1.67;1.58;;;;;;;25.97;28.38;94418.84;5003928;28;20323;-32
2020/12/05 04:03:25;;;;;;;1.80;1.40;;;;;;;25.99;28.24;94445.81;5006676;28;20045;-30
2020/12/05 04:05:50;;;;;;;2.92;1.67;;;;;;;26.00;28.19;94457.94;5011110;28;20034;-32
2020/12/05 04:08:16;;;;;;;2.15;1.63;;;;;;;25.99;28.37;94477.28;5006480;28;20060;-31
2020/12/05 04:10:42;;;;;;;3.95;1.50;;;;;;;25.97;28.23;94466.09;5003675;28;20041;-30
2020/12/05 04:13:08;;;;;;;3.80;2.08;;;;;;;25.96;28.28;94472.31;5011210;28;20037;-32
2020/12/05 04:15:34;;;;;;;1.70;1.50;;;;;;;25.96;28.37;94461.81;5006844;28;20053;-30
2020/12/05 04:18:00;;;;;;;4.07;1.45;;;;;;;25.92;28.43;94449.94;5008021;28;20110;-32
2020/12/05 04:20:26;;;;;;;1.88;1.50;;;;;;;25.96;28.50;94474.94;5003398;28;20447;-30
2020/12/05 04:22:54;;;;;;;1.40;1.30;;;;;;;25.94;28.26;94469.81;5005179;28;20144;-37
2020/12/05 04:25:22;;;;;;;1.88;1.42;;;;;;;25.95;28.50;94492.50;5004314;28;20103;-37
2020/12/05 04:27:47;;;;;;;1.70;1.30;;;;;;;25.95;28.45;94486.41;5003773;28;20048;-33
2020/12/05 04:30:13;;;;;;;2.30;1.48;;;;;;;25.95;28.29;94491.66;5005058;28;20064;-34
2020/12/05 04:32:39;;;;;;;2.10;1.48;;;;;;;25.95;28.29;94483.78;5007402;28;20519;-34
2020/12/05 04:35:05;;;;;;;3.78;1.40;;;;;;;25.95;28.48;94486.41;5002833;28;20049;-36
2020/12/05 04:37:31;;;;;;;2.40;1.45;;;;;;;25.95;28.34;94478.53;5004911;28;20037;-38
2020/12/05 04:39:56;;;;;;;1.95;1.20;;;;;;;25.94;28.24;94463.78;5005535;28;20049;-36
2020/12/05 04:42:22;;;;;;;1.73;1.35;;;;;;;25.94;28.30;94469.03;5001916;28;20042;-35
2020/12/05 04:44:48;;;;;;;1.88;1.20;;;;;;;25.92;28.24;94497.19;5002863;28;20041;-39
2020/12/05 04:47:14;;;;;;;2.05;1.20;;;;;;;25.93;28.46;94493.59;5001610;28;20049;-39
2020/12/05 04:49:40;;;;;;;2.38;1.13;;;;;;;25.91;28.34;94472.75;5004318;28;20771;-36
2020/12/05 04:52:22;;;;;;;1.38;1.15;;;;;;;25.92;28.38;94518.16;5001074;28;20045;-37
2020/12/05 04:54:54;;;;;;;1.10;1.00;;;;;;;25.91;28.34;94519.97;4989411;28;20388;-39
2020/12/05 04:57:22;;;;;;;1.65;1.30;;;;;;;25.91;28.43;94527.84;5002314;28;20076;-35
2020/12/05 04:59:49;;;;;;;1.52;1.40;;;;;;;25.91;28.43;94540.13;5002748;28;20377;-36
2020/12/05 05:02:14;;;;;;;2.60;1.30;;;;;;;25.92;28.31;94549.66;4996781;28;20116;-36
2020/12/05 05:04:40;;;;;;;1.70;1.25;;;;;;;25.90;28.24;94562.09;5015487;28;20468;-35
2020/12/05 05:07:05;;;;;;;1.48;1.00;;;;;;;25.91;28.52;94569.00;5006925;28;20493;-34
2020/12/05 05:09:31;;;;;;;1.80;1.20;;;;;;;25.89;28.44;94586.69;5007695;28;20046;-36
2020/12/05 05:11:57;;;;;;;1.30;1.20;;;;;;;25.89;28.41;94587.50;5002767;28;20045;-35
2020/12/05 05:14:33;;;;;;;2.13;1.30;;;;;;;25.89;28.39;94612.91;5003687;28;20041;-33
2020/12/05 05:17:05;;;;;;;1.60;1.27;;;;;;;25.87;28.38;94610.44;4995494;28;20514;-38
2020/12/05 05:19:35;;;;;;;1.60;1.33;;;;;;;25.87;28.33;94612.22;5000429;28;20576;-36
2020/12/05 05:22:01;;;;;;;1.20;1.10;;;;;;;25.88;28.36;94616.50;4997883;28;20041;-34
2020/12/05 05:24:27;;;;;;;1.48;1.10;;;;;;;25.87;28.56;94625.34;5001228;28;20041;-38
2020/12/05 05:27:00;;;;;;;1.80;1.05;;;;;;;25.86;28.56;94616.66;5001659;28;20248;-33
2020/12/05 05:29:28;;;;;;;1.80;1.30;;;;;;;25.87;28.54;94620.09;5004173;28;20132;-38
2020/12/05 05:32:05;;;;;;;1.67;1.20;;;;;;;25.86;28.43;94623.69;5002166;28;20576;-36
2020/12/05 05:34:31;;;;;;;1.52;1.00;;;;;;;25.85;28.39;94622.84;5002514;28;20041;-36
2020/12/05 05:36:56;;;;;;;1.95;1.50;;;;;;;25.83;28.42;94636.09;5004107;28;20046;-35
2020/12/05 05:39:22;;;;;;;2.45;1.20;;;;;;;25.83;28.31;94628.22;5006034;28;20433;-36
2020/12/05 05:41:53;;;;;;;1.08;0.98;;;;;;;25.83;28.40;94625.59;5001369;28;20045;-38
2020/12/05 05:44:20;;;;;;;1.10;1.00;;;;;;;25.85;28.44;94635.16;5006735;28;20119;-37
2020/12/05 05:46:49;;;;;;;1.58;1.20;;;;;;;25.86;28.58;94647.28;5002736;28;20045;-38
2020/12/05 05:49:34;;;;;;;1.05;0.90;;;;;;;25.85;28.42;94664.81;5002289;28;20049;-38
2020/12/05 05:52:00;;;;;;;1.52;1.00;;;;;;;25.85;28.52;94656.13;4999124;28;20037;-41
2020/12/05 05:54:27;;;;;;;1.58;1.02;;;;;;;25.85;28.42;94674.50;5008324;28;20041;-38
2020/12/05 05:56:55;;;;;;;1.60;1.23;;;;;;;25.85;28.51;94671.88;5010941;28;20467;-35
2020/12/05 05:59:21;;;;;;;1.80;1.23;;;;;;;25.85;28.32;94670.06;5002887;28;20037;-39
2020/12/05 06:01:46;;;;;;;1.80;1.27;;;;;;;25.85;28.44;94666.63;4996539;28;20136;-37
2020/12/05 06:04:13;;;;;;;1.23;1.02;;;;;;;25.86;28.21;94670.91;5000858;28;20056;-35
2020/12/05 06:06:38;;;;;;;1.33;1.00;;;;;;;25.85;28.27;94664.81;5004008;28;20073;-40
2020/12/05 06:09:04;;;;;;;1.10;1.00;;;;;;;25.86;28.32;94655.16;5002140;28;20080;-34
2020/12/05 06:11:31;;;;;;;3.28;1.13;;;;;;;25.85;28.23;94661.38;4998271;28;20550;-37
2020/12/05 06:14:00;;;;;;;1.10;1.00;;;;;;;25.85;28.52;94661.38;5004004;28;20033;-41
2020/12/05 06:16:26;;;;;;;1.48;1.00;;;;;;;25.85;28.14;94669.25;5002683;28;20049;-40
2020/12/05 06:18:51;;;;;;;5.53;1.80;;;;;;;25.82;27.84;94681.66;4999995;28;20045;-36
2020/12/05 06:21:17;;;;;;;3.08;1.88;;;;;;;25.79;27.94;94697.69;4996800;28;20629;-37
2020/12/05 06:23:48;;;;;;;1.92;1.25;;;;;;;25.76;28.06;94708.44;4999691;28;20045;-38
2020/12/05 06:26:47;;;;;;;0.90;0.90;;;;;;;25.74;28.31;94705.09;5002622;28;20132;-39
2020/12/05 06:29:12;;;;;;;3.22;1.35;;;;;;;25.60;28.43;94684.47;4998185;28;20060;-33
2020/12/05 06:31:39;;;;;;;1.20;0.93;;;;;;;25.73;28.54;94749.84;5001877;28;20596;-41
2020/12/05 06:34:05;;;;;;;2.58;1.00;;;;;;;25.72;28.62;94759.50;4999739;28;20042;-34
2020/12/05 06:36:31;;;;;;;2.78;1.08;;;;;;;25.74;28.57;94752.31;5003615;28;20061;-40
2020/12/05 06:39:17;;;;;;;0.90;0.70;;;;;;;25.73;28.58;94760.34;5006101;28;20530;-36
2020/12/05 06:41:51;;;;;;;1.40;1.00;;;;;;;25.73;28.50;94750.66;5000828;28;20703;-39
2020/12/05 06:44:24;;;;;;;1.63;1.10;;;;;;;25.74;28.51;94741.00;5002359;28;20091;-34
2020/12/05 06:46:53;;;;;;;1.75;1.13;;;;;;;25.74;28.50;94752.31;5002619;28;20531;-37
2020/12/05 06:49:37;;;;;;;1.45;1.20;;;;;;;25.75;28.56;94742.66;5000828;28;20053;-35
2020/12/05 06:52:24;;;;;;;1.45;1.05;;;;;;;25.74;28.38;94752.31;5002738;28;20044;-35
2020/12/05 06:54:56;;;;;;;0.93;0.90;;;;;;;25.74;28.59;94746.25;5002569;28;20037;-39
2020/12/05 06:57:24;;;;;;;1.85;1.10;;;;;;;25.74;28.34;94757.56;5002940;28;20140;-38
2020/12/05 06:59:50;;;;;;;0.93;0.85;;;;;;;25.75;28.54;94767.13;5002751;28;21575;-40
2020/12/05 07:02:28;;;;;;;2.65;1.33;;;;;;;25.74;28.08;94772.50;4999813;28;20044;-34
2020/12/05 07:05:18;;;;;;;1.70;1.27;;;;;;;25.71;28.27;94768.34;5006555;28;20041;-39
2020/12/05 07:07:47;;;;;;;1.98;1.33;;;;;;;25.70;28.49;94766.66;5005281;28;20029;-40
2020/12/05 07:10:13;;;;;;;1.60;1.02;;;;;;;25.70;28.46;94772.75;5004333;28;20398;-36
2020/12/05 07:12:38;;;;;;;2.08;1.23;;;;;;;25.72;28.44;94769.16;5003638;28;20049;-34
2020/12/05 07:15:23;;;;;;;3.03;1.00;;;;;;;25.73;28.46;94773.47;5015824;28;20045;-40
2020/12/05 07:17:55;;;;;;;1.42;1.00;;;;;;;25.74;28.44;94767.25;5003989;28;20247;-38
2020/12/05 07:20:21;;;;;;;1.48;1.05;;;;;;;25.74;28.46;94778.56;5008197;28;20403;-37
2020/12/05 07:22:50;;;;;;;0.88;0.88;;;;;;;25.74;28.43;94767.25;4998851;28;20069;-39
2020/12/05 07:25:16;;;;;;;1.40;1.20;;;;;;;25.70;28.57;94757.00;5008168;28;20267;-38
2020/12/05 07:27:42;;;;;;;1.00;0.85;;;;;;;25.72;28.49;94772.63;5010710;28;20037;-37
2020/12/05 07:30:08;;;;;;;1.70;0.93;;;;;;;25.72;28.50;94775.25;5013717;28;20049;-38
2020/12/05 07:32:33;;;;;;;1.30;0.98;;;;;;;25.72;28.57;94772.63;5006080;28;20052;-35
2020/12/05 07:35:00;;;;;;;1.00;0.82;;;;;;;25.72;28.59;94775.25;5002007;28;20089;-34
2020/12/05 07:37:26;;;;;;;1.70;1.10;;;;;;;25.73;28.47;94782.16;5004571;28;20076;-34
2020/12/05 07:39:52;;;;;;;1.52;0.82;;;;;;;25.73;28.44;94782.16;5003161;28;20072;-33
2020/12/05 07:42:18;;;;;;;2.35;0.82;;;;;;;25.73;28.44;94807.56;5002876;28;20518;-37
2020/12/05 07:44:43;;;;;;;1.27;0.90;;;;;;;25.72;28.52;94811.97;5003171;28;20045;-41
2020/12/05 07:47:21;;;;;;;5.05;1.00;;;;;;;25.70;28.44;94829.63;5016494;28;20045;-39
2020/12/05 07:49:53;;;;;;;1.88;1.20;;;;;;;25.68;28.50;94826.31;5017558;28;20137;-35
2020/12/05 07:52:22;;;;;;;3.65;1.15;;;;;;;25.67;28.39;94814.16;5022246;28;20065;-38
2020/12/05 07:54:51;;;;;;;6.30;1.15;;;;;;;25.67;28.34;94814.16;5026480;28;20037;-35
2020/12/05 07:57:16;;;;;;;2.65;1.10;;;;;;;25.63;28.36;94803.06;5015378;28;20049;-36
2020/12/05 07:59:44;;;;;;;10.48;1.40;;;;;;;25.62;28.14;94808.47;5013515;28;20064;-34
2020/12/05 08:02:34;;;;;;;3.03;1.20;;;;;;;25.61;28.55;94805.00;5003403;28;20045;-36
2020/12/05 08:05:07;;;;;;;2.47;1.10;;;;;;;25.61;28.23;94804.16;5012756;28;20041;-38
2020/12/05 08:07:39;;;;;;;1.50;0.95;;;;;;;25.61;28.53;94814.66;5008729;28;20045;-39
2020/12/05 08:10:05;;;;;;;;;;;;;;;25.61;28.57;94815.50;5004955;28;20042;-33
2020/12/05 08:12:47;;;;;;;3.95;1.38;;;;;;;25.60;28.84;94805.97;5009677;28;19924;-35
2020/12/05 08:15:22;;;;;;;6.68;3.10;;;;;;;25.57;26.87;94809.69;5007242;28;20042;-40
2020/12/05 08:17:48;;;;;;;4.68;2.25;;;;;;;25.51;26.43;94804.91;5022438;28;20106;-37
2020/12/05 08:20:14;;;;;;;10.65;2.10;;;;;;;25.44;26.40;94809.00;5009839;28;20049;-41
2020/12/05 08:22:39;;;;;;;3.72;2.25;;;;;;;25.34;26.81;94803.69;5009252;28;20053;-41
2020/12/05 08:25:05;;;;;;;7.30;2.70;;;;;;;25.27;26.78;94808.63;5008464;28;20034;-37
2020/12/05 08:27:31;;;;;;;5.32;2.95;;;;;;;25.19;26.50;94816.28;5008068;28;20053;-39
2020/12/05 08:29:56;;;;;;;6.95;2.78;;;;;;;25.14;26.48;94823.69;5009295;28;20088;-35
2020/12/05 08:32:22;;;;;;;3.40;2.53;;;;;;;25.06;26.60;94819.06;5008118;28;20048;-34
2020/12/05 08:34:48;;;;;;;5.15;2.65;;;;;;;25.00;26.47;94824.78;5006971;28;20123;-34
2020/12/05 08:37:24;;;;;;;4.63;2.28;;;;;;;24.92;27.06;94830.66;5009149;28;20777;-39
2020/12/05 08:39:50;;;;;;;4.00;2.20;;;;;;;24.85;27.11;94829.50;5007108;28;20076;-39
2020/12/05 08:42:16;;;;;;;3.95;1.92;;;;;;;24.80;27.31;94838.50;5009313;28;20045;-41
2020/12/05 08:44:41;;;;;;;3.70;1.75;;;;;;;24.76;27.48;94837.13;5020064;28;20057;-38
2020/12/05 08:47:07;;;;;;;2.78;2.00;;;;;;;24.72;27.60;94846.19;5005231;28;20090;-42
2020/12/05 08:49:40;;;;;;;2.72;2.00;;;;;;;24.70;27.74;94842.84;5008775;28;20841;-36
2020/12/05 08:52:06;;;;;;;3.97;2.25;;;;;;;24.66;27.51;94847.50;5007083;28;20055;-32
2020/12/05 08:54:32;;;;;;;2.35;1.98;;;;;;;24.66;27.68;94862.38;5007013;28;20037;-37
2020/12/05 08:57:16;;;;;;;1.88;1.55;;;;;;;24.74;29.07;94866.97;5006800;28;20478;-39
2020/12/05 08:59:41;;;;;;;3.92;1.75;;;;;;;24.78;29.06;94866.63;5006390;28;20061;-35
2020/12/05 09:02:08;;;;;;;3.08;1.50;;;;;;;24.83;29.30;94862.81;5004547;28;20052;-35
2020/12/05 09:04:34;;;;;;;2.92;1.85;;;;;;;24.87;29.28;94864.28;5020970;28;20041;-35
2020/12/05 09:07:13;;;;;;;4.35;1.50;;;;;;;24.91;29.30;94856.03;5009906;28;20123;-35
2020/12/05 09:09:42;;;;;;;3.47;1.55;;;;;;;24.95;29.01;94851.38;5004401;28;20172;-34
2020/12/05 09:12:13;;;;;;;2.08;1.45;;;;;;;24.97;29.20;94859.94;5008264;28;20041;-38
2020/12/05 09:14:39;;;;;;;3.65;1.80;;;;;;;24.99;29.17;94858.06;5007195;28;20133;-38
2020/12/05 09:17:19;;;;;;;2.53;1.63;;;;;;;25.01;29.31;94860.53;5003007;28;20041;-38
2020/12/05 09:19:45;;;;;;;2.28;1.50;;;;;;;25.02;29.13;94873.50;5008403;28;20098;-40
2020/12/05 09:22:29;;;;;;;3.20;1.58;;;;;;;25.05;29.39;94875.88;5006917;28;20414;-38
2020/12/05 09:24:56;;;;;;;1.95;1.40;;;;;;;25.09;29.11;94873.03;5005968;28;20083;-36
2020/12/05 09:27:22;;;;;;;1.95;1.25;;;;;;;25.12;29.04;94872.75;5011308;28;20782;-40
2020/12/05 09:29:48;;;;;;;2.75;1.58;;;;;;;25.13;29.29;94871.81;5010023;28;20128;-37
2020/12/05 09:32:13;;;;;;;1.70;1.30;;;;;;;25.15;29.12;94894.34;5007071;28;20037;-34
2020/12/05 09:34:39;;;;;;;13.65;1.63;;;;;;;25.17;28.96;94887.16;5005288;28;20037;-37
2020/12/05 09:37:12;;;;;;;3.97;1.23;;;;;;;25.21;29.37;94895.63;5007718;28;20037;-37
2020/12/05 09:39:38;;;;;;;4.20;1.48;;;;;;;25.21;29.31;94886.94;5006831;28;20045;-36
2020/12/05 09:42:03;;;;;;;1.52;1.27;;;;;;;25.24;29.47;94897.16;5003156;28;20056;-37
2020/12/05 09:44:29;;;;;;;2.40;1.50;;;;;;;25.26;29.63;94900.50;5002116;28;20037;-34
2020/12/05 09:46:54;;;;;;;1.67;1.30;;;;;;;25.25;29.32;94894.41;5005454;28;20304;-33
2020/12/05 09:49:20;;;;;;;4.70;1.70;;;;;;;25.26;29.16;94906.56;5008826;28;20041;-33
2020/12/05 09:51:45;;;;;;;5.35;1.77;;;;;;;25.28;28.35;94912.50;4999349;28;20431;-40
2020/12/05 09:54:11;;;;;;;8.45;4.57;;;;;;;24.95;21.19;94909.03;5026232;22;20056;-34
2020/12/05 09:56:37;;;;;;;11.35;5.13;;;;;;;24.47;20.89;94904.88;5010289;28;20045;-32
2020/12/05 09:59:03;;;;;;;10.70;4.93;;;;;;;24.00;21.29;94905.75;5008514;28;20041;-32
2020/12/05 10:01:29;;;;;;;12.82;4.78;;;;;;;23.55;21.66;94893.38;5007560;28;20045;-33
2020/12/05 10:03:55;;;;;;;7.72;4.03;;;;;;;23.17;23.10;94906.50;5004732;28;20060;-33
2020/12/05 10:06:21;;;;;;;7.43;3.95;;;;;;;23.12;24.28;94903.41;5006884;28;20037;-31
2020/12/05 10:08:46;;;;;;;11.15;4.45;;;;;;;23.16;24.91;94910.09;5008547;28;20665;-33
2020/12/05 10:11:12;;;;;;;7.57;3.55;;;;;;;23.25;25.88;94908.56;5007506;28;20293;-33
2020/12/05 10:13:37;;;;;;;6.47;3.53;;;;;;;23.38;26.57;94903.31;5006073;28;20038;-35
2020/12/05 10:16:03;;;;;;;6.93;3.33;;;;;;;23.46;26.94;94895.72;5001901;28;20053;-32
2020/12/05 10:18:28;;;;;;;8.20;3.30;;;;;;;23.54;27.33;94889.97;5004202;28;20068;-31
2020/12/05 10:20:54;;;;;;;9.10;3.13;;;;;;;23.66;27.45;94890.81;5003315;28;20505;-32
2020/12/05 10:23:21;;;;;;;11.85;3.33;;;;;;;23.73;27.28;94892.03;5007456;28;20045;-33
2020/12/05 10:25:46;;;;;;;12.05;3.22;;;;;;;23.81;27.65;94888.00;5011719;28;20045;-32
2020/12/05 10:28:12;;;;;;;9.88;3.25;;;;;;;23.90;27.60;94896.94;5010348;28;20034;-32
2020/12/05 10:30:37;;;;;;;5.25;2.92;;;;;;;23.98;27.73;94908.47;5006478;28;20528;-32
2020/12/05 10:33:03;;;;;;;7.28;3.28;;;;;;;24.08;27.55;94928.72;5010994;28;20429;-33
2020/12/05 10:35:28;;;;;;;7.95;2.80;;;;;;;24.18;27.73;94929.72;5031151;28;20507;-29
2020/12/05 10:37:54;;;;;;;12.20;3.58;;;;;;;24.27;27.61;94918.56;5022664;28;21006;-32
2020/12/05 10:40:19;;;;;;;13.27;3.67;;;;;;;24.38;27.85;94929.97;5019775;28;20237;-32
2020/12/05 10:42:45;;;;;;;6.78;3.30;;;;;;;24.44;27.85;94926.88;5018037;28;20036;-33
2020/12/05 10:45:10;;;;;;;6.38;3.20;;;;;;;24.49;27.53;94929.97;5014819;28;20453;-33
2020/12/05 10:47:35;;;;;;;5.55;2.70;;;;;;;24.55;27.64;94922.63;5019042;28;20041;-33
2020/12/05 10:50:01;;;;;;;18.25;3.70;;;;;;;24.57;28.11;94920.69;5019053;28;20326;-33
2020/12/05 10:52:26;;;;;;;9.93;3.20;;;;;;;24.60;28.36;94933.56;5018087;28;20037;-32
2020/12/05 10:54:52;;;;;;;7.15;2.60;;;;;;;24.64;28.03;94929.75;5011465;28;20068;-33
2020/12/05 10:57:17;;;;;;;6.32;2.60;;;;;;;24.71;28.46;94927.50;5011252;28;20669;-32
2020/12/05 10:59:43;;;;;;;8.88;2.60;;;;;;;24.76;28.16;94931.44;5008360;28;20053;-36
2020/12/05 11:02:09;;;;;;;8.18;3.00;;;;;;;24.62;28.35;94902.84;5005658;28;20033;-36
2020/12/05 11:04:34;;;;;;;8.95;3.10;;;;;;;24.86;28.07;94933.34;5009992;28;20057;-34
2020/12/05 11:07:00;;;;;;;15.02;3.55;;;;;;;24.92;28.15;94935.47;5012570;28;20227;-33
2020/12/05 11:09:25;;;;;;;12.38;3.05;;;;;;;24.97;28.09;94922.03;5009801;28;20041;-31
2020/12/05 11:11:52;;;;;;;14.90;3.30;;;;;;;24.98;28.16;94924.50;5007625;28;20425;-33
2020/12/05 11:14:17;;;;;;;13.82;3.13;;;;;;;25.02;28.60;94927.72;5013411;28;20123;-34
2020/12/05 11:16:43;;;;;;;10.10;3.10;;;;;;;25.05;28.68;94920.44;5009765;28;20119;-32
2020/12/05 11:19:09;;;;;;;15.70;3.22;;;;;;;25.08;28.92;94913.28;5012674;28;20171;-36
2020/12/05 11:21:34;;;;;;;6.45;2.53;;;;;;;25.12;28.83;94917.31;5007743;28;20045;-36
2020/12/05 11:24:00;;;;;;;13.77;3.20;;;;;;;25.16;28.89;94931.84;5010306;28;20217;-33
2020/12/05 11:26:25;;;;;;;11.52;3.13;;;;;;;25.18;29.47;94924.72;5013697;28;20037;-36
2020/12/05 11:28:51;;;;;;;8.65;3.65;;;;;;;25.18;29.49;94919.47;5010137;28;20045;-36
2020/12/05 11:31:16;;;;;;;62.70;4.30;;;;;;;25.18;30.31;94919.47;5009995;28;20072;-35
2020/12/05 11:33:42;;;;;;;17.63;3.35;;;;;;;25.12;29.43;94914.69;5009177;28;20132;-35
2020/12/05 11:36:07;;;;;;;8.80;2.78;;;;;;;25.10;30.31;94916.63;5011073;28;20071;-36
2020/12/05 11:38:34;;;;;;;12.60;3.10;;;;;;;25.08;29.12;94918.50;5010828;28;20044;-35